Time;durP1;ratioP1;P1;durP2;ratioP2;P2;SDS_P1;SDS_P2;PMS_P1;PMS_P2;Temp;Humidity;BMP_temperature;BMP_pressure;BME280_temperature;BME280_humidity;BME280_pressure;Samples;Min_cycle;Max_cycle;Signal;HPM_P1;HPM_P2
2022/12/06 00:01:41;;;;;;;6.37;4.90;;;4.20;99.90;;;;;;5009754;28;20295;-79
2022/12/06 00:04:10;;;;;;;8.55;5.90;;;4.20;99.90;;;;;;5010724;28;20185;-78
2022/12/06 00:06:42;;;;;;;7.22;5.28;;;4.20;99.90;;;;;;5011985;28;20185;-77
2022/12/06 00:09:10;;;;;;;6.03;4.57;;;4.20;99.90;;;;;;5011871;28;20276;-77
2022/12/06 00:11:36;;;;;;;6.93;4.93;;;4.30;99.90;;;;;;5010290;28;20450;-77
2022/12/06 00:14:04;;;;;;;13.57;5.77;;;4.30;99.90;;;;;;5011918;28;20836;-77
2022/12/06 00:16:31;;;;;;;6.67;5.10;;;4.20;99.90;;;;;;5011822;28;20820;-77
2022/12/06 00:18:57;;;;;;;7.53;5.00;;;4.20;99.90;;;;;;5010187;28;20857;-77
2022/12/06 00:21:27;;;;;;;6.03;4.80;;;4.20;99.90;;;;;;5011831;28;20429;-78
2022/12/06 00:23:55;;;;;;;7.10;5.13;;;4.20;99.90;;;;;;5011539;28;20466;-77
2022/12/06 00:26:22;;;;;;;7.53;5.32;;;4.20;99.90;;;;;;5011877;28;20185;-77
2022/12/06 00:28:47;;;;;;;5.90;4.70;;;4.20;99.90;;;;;;5010063;28;20184;-77
2022/12/06 00:31:16;;;;;;;6.33;4.80;;;4.20;99.90;;;;;;5011417;28;20220;-77
2022/12/06 00:33:42;;;;;;;6.60;4.93;;;4.20;99.90;;;;;;5011352;28;20191;-78
2022/12/06 00:36:16;;;;;;;7.80;5.00;;;4.20;99.90;;;;;;5011244;28;20424;-76
2022/12/06 00:38:44;;;;;;;6.55;4.47;;;4.20;99.90;;;;;;5010166;28;20287;-77
2022/12/06 00:41:15;;;;;;;10.47;4.40;;;4.20;99.90;;;;;;5010384;28;20200;-80
2022/12/06 00:43:41;;;;;;;6.20;4.70;;;4.10;99.90;;;;;;5011709;28;20514;-79
2022/12/06 00:46:10;;;;;;;6.83;5.07;;;4.20;99.90;;;;;;5011419;28;20514;-79
2022/12/06 00:48:36;;;;;;;5.68;4.93;;;4.20;99.90;;;;;;5013602;28;20508;-80
2022/12/06 00:51:02;;;;;;;12.30;5.20;;;4.20;99.90;;;;;;5011534;28;20232;-77
2022/12/06 00:53:27;;;;;;;6.17;4.47;;;4.20;99.90;;;;;;5011550;28;20193;-78
2022/12/06 00:55:56;;;;;;;5.50;4.40;;;4.20;99.90;;;;;;5009989;28;20180;-78
2022/12/06 00:58:22;;;;;;;5.13;4.50;;;4.20;99.90;;;;;;5011885;28;20213;-78
2022/12/06 01:00:48;;;;;;;5.23;4.07;;;4.20;99.90;;;;;;5009480;28;20469;-77
2022/12/06 01:03:14;;;;;;;4.10;3.70;;;4.20;99.90;;;;;;5010708;28;20444;-80
2022/12/06 01:05:46;;;;;;;6.27;4.20;;;4.20;99.90;;;;;;5011601;28;21270;-79
2022/12/06 01:08:12;;;;;;;5.05;4.03;;;4.10;99.90;;;;;;5011007;28;20423;-79
2022/12/06 01:10:38;;;;;;;4.80;4.20;;;4.10;99.90;;;;;;5010432;28;20216;-78
2022/12/06 01:13:05;;;;;;;5.00;3.77;;;4.20;99.90;;;;;;5011565;28;20635;-79
2022/12/06 01:15:31;;;;;;;5.27;4.77;;;4.00;99.90;;;;;;5012087;28;20428;-77
2022/12/06 01:17:57;;;;;;;4.55;3.80;;;4.10;99.90;;;;;;5011281;28;20450;-78
2022/12/06 01:20:23;;;;;;;4.60;3.90;;;4.10;99.90;;;;;;5009787;28;20207;-78
2022/12/06 01:22:48;;;;;;;5.63;4.27;;;4.10;99.90;;;;;;5011507;28;20447;-76
2022/12/06 01:25:14;;;;;;;5.00;3.90;;;4.00;99.90;;;;;;5010394;28;20201;-76
2022/12/06 01:27:40;;;;;;;6.93;4.20;;;4.00;99.90;;;;;;4992687;28;20192;-76
2022/12/06 01:30:06;;;;;;;5.83;3.73;;;4.10;99.90;;;;;;5010543;28;20227;-77
2022/12/06 01:32:32;;;;;;;4.13;3.73;;;3.90;99.90;;;;;;5010768;28;20274;-78
2022/12/06 01:34:57;;;;;;;5.17;4.67;;;3.90;99.90;;;;;;4993148;28;20415;-79
2022/12/06 01:37:23;;;;;;;6.43;4.50;;;3.80;99.90;;;;;;5009145;28;20189;-79
2022/12/06 01:39:48;;;;;;;4.43;4.03;;;3.80;99.90;;;;;;4976948;28;20323;-79
2022/12/06 01:42:15;;;;;;;3.53;3.23;;;3.80;99.90;;;;;;5009783;28;20212;-81
2022/12/06 01:44:44;;;;;;;4.78;4.28;;;3.70;99.90;;;;;;5013173;28;20709;-81
2022/12/06 01:47:19;;;;;;;5.43;4.27;;;3.70;99.90;;;;;;5011254;28;20191;-77
2022/12/06 01:49:56;;;;;;;6.50;4.18;;;3.60;99.90;;;;;;5009681;28;20465;-80
2022/12/06 01:52:36;;;;;;;4.90;4.25;;;3.60;99.90;;;;;;5011451;28;20206;-81
2022/12/06 01:55:04;;;;;;;4.43;3.60;;;3.60;99.90;;;;;;4997113;28;20173;-80
2022/12/06 01:57:30;;;;;;;5.53;3.70;;;3.60;99.90;;;;;;4997070;28;20425;-81
2022/12/06 01:59:56;;;;;;;5.93;4.10;;;3.50;99.90;;;;;;5010607;28;20980;-80
2022/12/06 02:02:21;;;;;;;4.10;3.63;;;3.40;99.90;;;;;;5009679;28;20212;-80
2022/12/06 02:04:49;;;;;;;4.40;3.70;;;3.40;99.90;;;;;;4992885;28;20427;-77
2022/12/06 02:07:15;;;;;;;3.77;3.47;;;3.40;99.90;;;;;;5008890;28;20534;-77
2022/12/06 02:09:41;;;;;;;3.73;3.43;;;3.30;99.90;;;;;;4992306;28;20478;-79
2022/12/06 02:12:12;;;;;;;5.13;3.28;;;3.30;99.90;;;;;;4992605;28;20613;-80
2022/12/06 02:14:38;;;;;;;3.97;3.42;;;3.10;99.90;;;;;;5008526;28;20188;-79
2022/12/06 02:17:39;;;;;;;6.65;4.20;;;3.00;99.90;;;;;;5008623;28;20664;-78
2022/12/06 02:20:10;;;;;;;7.75;4.15;;;3.00;99.90;;;;;;5009633;28;20188;-78
2022/12/06 02:22:50;;;;;;;3.67;3.10;;;2.90;99.90;;;;;;5009370;28;20202;-78
2022/12/06 02:25:43;;;;;;;5.30;4.22;;;2.80;99.90;;;;;;5010072;28;20183;-77
2022/12/06 02:28:38;;;;;;;5.25;3.70;;;2.80;99.90;;;;;;5011893;28;20185;-78
2022/12/06 02:31:15;;;;;;;5.15;3.85;;;2.70;99.90;;;;;;5011655;28;20700;-76
2022/12/06 02:33:58;;;;;;;6.85;4.18;;;2.60;99.90;;;;;;5013283;28;20206;-76
2022/12/06 02:36:54;;;;;;;6.80;4.53;;;2.60;99.90;;;;;;5013629;28;20175;-76
2022/12/06 02:39:43;;;;;;;3.50;2.90;;;2.50;99.90;;;;;;5011566;28;20594;-76
2022/12/06 02:42:38;;;;;;;3.83;3.20;;;2.50;99.90;;;;;;5011616;28;20583;-76
2022/12/06 02:45:14;;;;;;;4.35;2.70;;;2.50;99.90;;;;;;5012993;28;20183;-76
2022/12/06 02:47:43;;;;;;;2.88;2.55;;;2.50;99.90;;;;;;5013033;28;20255;-76
2022/12/06 02:50:27;;;;;;;3.10;2.60;;;2.50;99.90;;;;;;5011197;28;20209;-76
2022/12/06 02:52:55;;;;;;;2.75;2.50;;;2.50;99.90;;;;;;5012978;28;20224;-76
2022/12/06 02:55:23;;;;;;;2.38;2.17;;;2.60;99.90;;;;;;4995791;28;20213;-76
2022/12/06 02:57:51;;;;;;;3.05;2.75;;;2.60;99.90;;;;;;5013895;28;20180;-79
2022/12/06 03:00:39;;;;;;;2.43;2.23;;;2.70;99.90;;;;;;5013527;28;20578;-78
2022/12/06 03:03:53;;;;;;;2.20;2.00;;;2.70;99.90;;;;;;5011654;28;20884;-77
2022/12/06 03:06:46;;;;;;;2.80;2.38;;;2.80;99.90;;;;;;4999573;28;20192;-78
2022/12/06 03:09:21;;;;;;;3.95;2.38;;;2.90;99.90;;;;;;5014618;28;20195;-78
2022/12/06 03:12:20;;;;;;;3.10;2.80;;;2.90;99.90;;;;;;5013120;28;20199;-78
2022/12/06 03:15:03;;;;;;;2.88;2.20;;;3.00;99.90;;;;;;5011449;28;20472;-77
2022/12/06 03:17:48;;;;;;;4.03;2.58;;;3.00;99.90;;;;;;5013017;28;20250;-77
2022/12/06 03:20:25;;;;;;;3.38;2.30;;;3.10;99.90;;;;;;5011881;28;20187;-76
2022/12/06 03:22:58;;;;;;;2.90;2.50;;;3.10;99.90;;;;;;5012897;28;20207;-78
2022/12/06 03:25:25;;;;;;;2.85;2.50;;;3.00;99.90;;;;;;5015708;28;20659;-77
2022/12/06 03:27:53;;;;;;;2.25;2.05;;;3.10;99.90;;;;;;5013141;28;20285;-77
2022/12/06 03:30:19;;;;;;;2.42;2.22;;;3.10;99.90;;;;;;5013799;28;20218;-75
2022/12/06 03:32:47;;;;;;;2.03;1.90;;;3.20;99.90;;;;;;5013652;28;20197;-75
2022/12/06 03:35:20;;;;;;;3.30;2.00;;;3.20;99.90;;;;;;4996242;28;20199;-76
2022/12/06 03:37:50;;;;;;;1.90;1.80;;;3.30;99.90;;;;;;5012153;28;20603;-75
2022/12/06 03:40:20;;;;;;;2.75;2.15;;;3.30;99.90;;;;;;5013070;28;20193;-75
2022/12/06 03:42:47;;;;;;;2.08;1.90;;;3.40;99.90;;;;;;5011712;28;20219;-75
2022/12/06 03:45:13;;;;;;;2.97;2.45;;;3.40;99.90;;;;;;5011294;28;20184;-75
2022/12/06 03:47:51;;;;;;;2.03;1.83;;;3.50;99.90;;;;;;5010041;28;20204;-75
2022/12/06 03:50:28;;;;;;;1.87;1.77;;;3.50;99.90;;;;;;5011448;28;20462;-75
2022/12/06 03:52:54;;;;;;;2.20;2.00;;;3.60;99.90;;;;;;5011486;28;20431;-75
2022/12/06 03:55:20;;;;;;;2.87;2.13;;;3.60;99.90;;;;;;5010174;28;20441;-75
2022/12/06 03:57:46;;;;;;;2.83;2.47;;;3.70;99.90;;;;;;5011935;28;20241;-78
2022/12/06 04:00:12;;;;;;;2.30;2.10;;;3.60;99.90;;;;;;5010266;28;20424;-77
2022/12/06 04:02:38;;;;;;;2.60;2.10;;;3.60;99.90;;;;;;5011412;28;20267;-76
2022/12/06 04:05:03;;;;;;;3.27;2.07;;;3.60;99.90;;;;;;5011216;28;20529;-76
2022/12/06 04:07:30;;;;;;;2.70;2.40;;;3.60;99.90;;;;;;5011183;28;20188;-76
2022/12/06 04:10:01;;;;;;;3.03;2.30;;;3.60;99.90;;;;;;5011007;28;20206;-75
2022/12/06 04:15:16;;;;;;;3.20;2.90;;;3.50;99.90;;;;;;5011311;28;20292;-76
2022/12/06 04:20:27;;;;;;;3.50;3.20;;;3.60;99.90;;;;;;5011111;28;20409;-77
2022/12/06 04:23:02;;;;;;;3.70;3.03;;;3.50;99.90;;;;;;5010624;28;20899;-76
2022/12/06 04:25:33;;;;;;;11.02;9.57;;;3.50;99.90;;;;;;5011024;28;20199;-77
2022/12/06 04:38:56;;;;;;;2.40;2.20;;;3.40;99.90;;;;;;5010200;28;20521;-76
2022/12/06 04:44:06;;;;;;;3.30;3.00;;;3.50;99.90;;;;;;5010016;28;20183;-77
2022/12/06 04:46:32;;;;;;;5.60;4.70;;;3.50;99.90;;;;;;5010141;28;20921;-77
2022/12/06 04:48:58;;;;;;;5.70;5.10;;;3.50;99.90;;;;;;5009746;28;20496;-79
2022/12/06 04:51:23;;;;;;;5.00;4.50;;;3.40;99.90;;;;;;4992662;28;20517;-78
2022/12/06 04:53:49;;;;;;;5.80;5.07;;;3.40;99.90;;;;;;5008811;28;20187;-79
2022/12/06 04:56:15;;;;;;;5.50;4.27;;;3.40;99.90;;;;;;5010213;28;20183;-77
2022/12/06 04:58:40;;;;;;;3.00;2.70;;;3.40;99.90;;;;;;5008871;28;20187;-78
2022/12/06 05:01:06;;;;;;;5.67;1.90;;;3.50;99.90;;;;;;5009798;28;20227;-76
2022/12/06 05:03:32;;;;;;;2.43;2.07;;;3.50;99.90;;;;;;5009925;28;20752;-76
2022/12/06 05:05:57;;;;;;;2.30;2.10;;;3.50;99.90;;;;;;5008616;28;20241;-76
2022/12/06 05:08:23;;;;;;;3.83;2.20;;;3.50;99.90;;;;;;5007577;28;20809;-77
2022/12/06 05:10:49;;;;;;;2.80;2.00;;;3.50;99.90;;;;;;5008945;28;20298;-76
2022/12/06 05:13:17;;;;;;;1.95;1.85;;;3.40;99.90;;;;;;5008123;28;20811;-76
2022/12/06 05:16:00;;;;;;;1.80;1.50;;;3.30;99.90;;;;;;5007692;28;20287;-76
2022/12/06 05:18:26;;;;;;;2.80;2.25;;;3.20;99.90;;;;;;5008789;28;20218;-76
2022/12/06 05:21:07;;;;;;;123.53;47.67;;;3.20;99.90;;;;;;5008779;28;20597;-76
2022/12/06 05:23:34;;;;;;;3.60;3.30;;;3.20;99.90;;;;;;5008777;28;20875;-75
2022/12/06 05:26:01;;;;;;;2.97;2.72;;;3.30;99.90;;;;;;4990921;28;20195;-75
2022/12/06 05:28:28;;;;;;;1.92;1.83;;;3.20;99.90;;;;;;4990784;28;20191;-75
2022/12/06 05:30:54;;;;;;;3.10;2.60;;;3.00;99.90;;;;;;5008835;28;20215;-76
2022/12/06 05:33:19;;;;;;;3.77;3.20;;;3.10;99.90;;;;;;5008968;28;20199;-75
2022/12/06 05:35:45;;;;;;;3.10;2.67;;;3.10;99.90;;;;;;5008664;28;20182;-74
2022/12/06 05:38:11;;;;;;;2.23;2.03;;;3.10;99.90;;;;;;4991049;28;20761;-76
2022/12/06 05:40:39;;;;;;;2.27;2.07;;;3.10;99.90;;;;;;5008689;28;20719;-75
2022/12/06 05:43:05;;;;;;;2.37;2.20;;;3.10;99.90;;;;;;5008726;28;20604;-76
2022/12/06 05:45:30;;;;;;;2.57;2.20;;;3.10;99.90;;;;;;5008519;28;20434;-76
2022/12/06 05:47:56;;;;;;;1.87;1.77;;;3.10;99.90;;;;;;5008826;28;20194;-77
2022/12/06 05:50:22;;;;;;;2.30;2.13;;;3.20;99.90;;;;;;5006974;28;20222;-75
2022/12/06 05:52:47;;;;;;;2.03;1.70;;;3.20;99.90;;;;;;5007036;28;20234;-76
2022/12/06 05:55:13;;;;;;;3.97;2.00;;;3.30;99.90;;;;;;5007058;28;20186;-76
2022/12/06 05:57:38;;;;;;;6.40;1.87;;;3.40;99.90;;;;;;5006931;28;20732;-75
2022/12/06 06:00:05;;;;;;;2.50;2.30;;;3.30;99.90;;;;;;5006868;28;20187;-75
2022/12/06 06:02:30;;;;;;;1.98;1.55;;;3.40;99.90;;;;;;5008447;28;20289;-75
2022/12/06 06:04:56;;;;;;;1.70;1.60;;;3.40;99.90;;;;;;4991114;28;20273;-75
2022/12/06 06:07:22;;;;;;;1.97;1.87;;;3.40;99.90;;;;;;4991167;28;20241;-76
2022/12/06 06:09:47;;;;;;;2.83;1.93;;;3.50;99.90;;;;;;5008322;28;20214;-76
2022/12/06 06:12:13;;;;;;;2.57;2.13;;;3.50;99.90;;;;;;5007127;28;20208;-76
2022/12/06 06:14:39;;;;;;;2.83;2.30;;;3.60;99.90;;;;;;5008347;28;20266;-76
2022/12/06 06:17:04;;;;;;;2.57;2.37;;;3.60;99.90;;;;;;5006894;28;20218;-75
2022/12/06 06:19:30;;;;;;;2.70;2.50;;;3.60;99.90;;;;;;4989889;28;20442;-75
2022/12/06 06:21:55;;;;;;;5.50;3.00;;;3.60;99.90;;;;;;4989739;28;20216;-75
2022/12/06 06:24:22;;;;;;;3.43;3.00;;;3.60;99.90;;;;;;5006001;28;20189;-75
2022/12/06 06:26:48;;;;;;;2.60;2.47;;;3.60;99.90;;;;;;5007708;28;20180;-75
2022/12/06 06:29:14;;;;;;;3.50;3.10;;;3.50;99.90;;;;;;5007414;28;20913;-75
2022/12/06 06:31:40;;;;;;;5.87;2.90;;;3.50;99.90;;;;;;5006107;28;20301;-76
2022/12/06 06:34:05;;;;;;;3.23;2.93;;;3.60;99.90;;;;;;4990083;28;20498;-75
2022/12/06 06:36:31;;;;;;;3.20;2.77;;;3.60;99.90;;;;;;5006303;28;20983;-76
2022/12/06 06:38:57;;;;;;;5.63;4.20;;;3.50;99.90;;;;;;5006253;28;20191;-75
2022/12/06 06:41:23;;;;;;;6.47;4.33;;;3.60;99.90;;;;;;4990192;28;20189;-75
2022/12/06 06:43:49;;;;;;;28.97;17.90;;;3.60;99.90;;;;;;5007802;28;20455;-75
2022/12/06 06:46:14;;;;;;;43.33;28.27;;;3.60;99.90;;;;;;5007784;28;20427;-75
2022/12/06 06:48:40;;;;;;;38.40;25.20;;;3.60;99.90;;;;;;5006148;28;20198;-75
2022/12/06 06:51:13;;;;;;;11.33;8.60;;;3.60;99.90;;;;;;5006407;28;20665;-75
2022/12/06 06:53:39;;;;;;;3.58;3.15;;;3.70;99.90;;;;;;5008115;28;20283;-75
2022/12/06 06:56:06;;;;;;;7.47;5.75;;;3.70;99.90;;;;;;5008044;28;20189;-75
2022/12/06 06:58:32;;;;;;;8.15;4.32;;;3.70;99.90;;;;;;5007838;28;20203;-75
2022/12/06 07:01:00;;;;;;;5.13;4.00;;;3.70;99.90;;;;;;5006495;28;20187;-75
2022/12/06 07:03:27;;;;;;;3.60;3.23;;;3.70;99.90;;;;;;5007507;28;20333;-76
2022/12/06 07:05:59;;;;;;;5.30;4.80;;;3.70;99.90;;;;;;5007900;28;20420;-75
2022/12/06 07:08:26;;;;;;;13.38;7.20;;;3.60;99.90;;;;;;5007797;28;20430;-75
2022/12/06 07:10:53;;;;;;;8.52;5.90;;;3.60;99.90;;;;;;5006157;28;20214;-75
2022/12/06 07:13:19;;;;;;;9.23;6.63;;;3.50;99.90;;;;;;4993459;28;20210;-75
2022/12/06 07:15:45;;;;;;;17.53;9.80;;;3.60;99.90;;;;;;5009664;28;20254;-75
2022/12/06 07:18:11;;;;;;;12.53;8.47;;;3.60;99.90;;;;;;5009011;28;20450;-74
2022/12/06 07:20:36;;;;;;;8.30;6.30;;;3.70;99.90;;;;;;5009670;28;20429;-75
2022/12/06 07:23:02;;;;;;;7.80;5.90;;;3.60;99.90;;;;;;5010716;28;20678;-75
2022/12/06 07:25:28;;;;;;;9.27;6.10;;;3.70;99.90;;;;;;5012233;28;20298;-76
2022/12/06 07:27:53;;;;;;;5.83;4.73;;;3.70;99.90;;;;;;5009485;28;20193;-75
2022/12/06 07:30:19;;;;;;;5.73;4.27;;;3.60;99.90;;;;;;5010390;28;20298;-76
2022/12/06 07:32:44;;;;;;;8.00;5.33;;;3.70;99.90;;;;;;5010392;28;20332;-77
2022/12/06 07:35:10;;;;;;;6.37;4.50;;;3.70;99.90;;;;;;5010578;28;20181;-75
2022/12/06 07:37:36;;;;;;;6.70;4.60;;;3.70;99.90;;;;;;5010432;28;20227;-75
2022/12/06 07:40:02;;;;;;;4.73;3.80;;;3.70;99.90;;;;;;5008818;28;20185;-75
2022/12/06 07:45:13;;;;;;;5.30;3.95;;;3.70;99.90;;;;;;5009094;28;20422;-75
2022/12/06 07:47:41;;;;;;;6.57;4.60;;;3.70;99.90;;;;;;5010663;28;20196;-76
2022/12/06 07:50:13;;;;;;;5.20;4.13;;;3.70;99.90;;;;;;5009047;28;20485;-75
2022/12/06 07:52:39;;;;;;;5.33;4.43;;;3.70;99.90;;;;;;5010487;28;20447;-76
2022/12/06 07:55:05;;;;;;;3.93;3.50;;;3.80;99.90;;;;;;5009077;28;20439;-75
2022/12/06 07:57:31;;;;;;;9.10;4.50;;;3.70;99.90;;;;;;5010275;28;20238;-76
2022/12/06 07:59:57;;;;;;;4.05;3.63;;;3.70;99.90;;;;;;5010276;28;20276;-76
2022/12/06 08:02:25;;;;;;;3.77;3.37;;;3.60;99.90;;;;;;5010197;28;20276;-75
2022/12/06 08:04:52;;;;;;;3.63;3.13;;;3.60;99.90;;;;;;5010143;28;20295;-76
2022/12/06 08:07:17;;;;;;;3.30;3.00;;;3.60;99.90;;;;;;5009934;28;20512;-75
2022/12/06 08:09:43;;;;;;;3.70;3.40;;;3.60;99.90;;;;;;5009542;28;20553;-75
2022/12/06 08:12:09;;;;;;;3.20;2.90;;;3.70;99.90;;;;;;5009630;28;20644;-76
2022/12/06 08:14:35;;;;;;;3.97;3.67;;;3.60;99.90;;;;;;5008156;28;21034;-76
2022/12/06 08:17:01;;;;;;;3.80;3.40;;;3.70;99.90;;;;;;5009421;28;20541;-76
2022/12/06 08:19:27;;;;;;;5.35;3.70;;;3.70;99.90;;;;;;5009251;28;20299;-76
2022/12/06 08:21:52;;;;;;;5.60;3.70;;;3.70;99.90;;;;;;5009266;28;20258;-76
2022/12/06 08:24:18;;;;;;;6.73;3.43;;;3.70;99.90;;;;;;5007988;28;20184;-75
2022/12/06 08:26:44;;;;;;;3.53;3.23;;;3.70;99.90;;;;;;5007830;28;20352;-76
2022/12/06 08:29:09;;;;;;;5.00;3.87;;;3.80;99.90;;;;;;5009234;28;20257;-76
2022/12/06 08:31:35;;;;;;;4.27;3.60;;;3.80;99.90;;;;;;5007573;28;20235;-76
2022/12/06 08:34:02;;;;;;;7.00;5.07;;;3.80;99.90;;;;;;5008962;28;20192;-77
2022/12/06 08:36:28;;;;;;;8.50;5.10;;;3.80;99.90;;;;;;4991195;28;20424;-75
2022/12/06 08:38:57;;;;;;;5.73;4.37;;;3.70;99.90;;;;;;5007542;28;20419;-75
2022/12/06 08:44:11;;;;;;;4.70;3.20;;;3.70;99.90;;;;;;5007788;28;20418;-76
2022/12/06 08:46:36;;;;;;;6.13;3.70;;;3.60;99.90;;;;;;5009006;28;20909;-76
2022/12/06 08:49:03;;;;;;;4.70;4.20;;;3.60;99.90;;;;;;5007255;28;20195;-77
2022/12/06 08:51:29;;;;;;;8.30;3.60;;;3.60;99.90;;;;;;5008569;28;20211;-75
2022/12/06 08:53:55;;;;;;;4.63;3.90;;;3.70;99.90;;;;;;5006978;28;21290;-76
2022/12/06 08:56:23;;;;;;;6.30;3.40;;;3.70;99.90;;;;;;5008912;28;20193;-76
2022/12/06 08:58:49;;;;;;;4.27;3.10;;;3.80;99.90;;;;;;5009074;28;20418;-76
2022/12/06 09:01:20;;;;;;;6.30;3.13;;;3.90;99.90;;;;;;5008876;28;20419;-76
2022/12/06 09:03:46;;;;;;;4.43;3.07;;;3.90;99.90;;;;;;5008482;28;20185;-76
2022/12/06 09:06:12;;;;;;;4.68;3.60;;;4.00;99.90;;;;;;5008612;28;21162;-76
2022/12/06 09:08:38;;;;;;;3.90;3.60;;;4.00;99.90;;;;;;5008096;28;20224;-75
2022/12/06 09:11:05;;;;;;;7.70;3.87;;;4.00;99.90;;;;;;5012717;28;20351;-76
2022/12/06 09:13:31;;;;;;;6.32;3.28;;;4.00;99.90;;;;;;5009347;28;20455;-76
2022/12/06 09:15:57;;;;;;;6.72;3.15;;;4.10;99.90;;;;;;5009597;28;20238;-76
2022/12/06 09:18:23;;;;;;;4.53;3.43;;;4.10;99.90;;;;;;5010061;28;20224;-76
2022/12/06 09:20:48;;;;;;;7.93;4.80;;;4.10;99.90;;;;;;5008947;28;20212;-76
2022/12/06 09:23:14;;;;;;;7.77;5.30;;;4.10;99.90;;;;;;5008101;28;20250;-76
2022/12/06 09:25:41;;;;;;;6.43;4.80;;;4.20;99.90;;;;;;5009781;28;20181;-76
2022/12/06 09:28:07;;;;;;;7.90;4.30;;;4.20;99.90;;;;;;5007967;28;20184;-77
2022/12/06 09:30:32;;;;;;;8.70;4.60;;;4.20;99.90;;;;;;5013965;28;20500;-76
2022/12/06 09:32:58;;;;;;;4.73;4.00;;;4.30;99.90;;;;;;5015505;28;20205;-77
2022/12/06 09:35:23;;;;;;;4.47;3.67;;;4.30;99.90;;;;;;5006830;28;20937;-75
2022/12/06 09:37:49;;;;;;;4.13;3.73;;;4.30;99.90;;;;;;5007057;28;20179;-75
2022/12/06 09:40:31;;;;;;;4.90;4.40;;;4.50;99.90;;;;;;5007256;28;20195;-75
2022/12/06 09:43:18;;;;;;;8.20;4.17;;;4.40;99.90;;;;;;5008364;28;20795;-76
2022/12/06 09:45:53;;;;;;;4.77;4.00;;;4.30;99.90;;;;;;5009135;28;20406;-76
2022/12/06 09:48:35;;;;;;;6.93;5.10;;;4.40;99.90;;;;;;5008777;28;20866;-76
2022/12/06 09:51:26;;;;;;;7.87;5.20;;;4.50;99.90;;;;;;5008122;28;20473;-76
2022/12/06 09:53:57;;;;;;;10.23;5.30;;;4.50;99.90;;;;;;5007878;28;20412;-75
2022/12/06 09:56:35;;;;;;;8.90;5.40;;;4.40;99.90;;;;;;5008119;28;20183;-75
2022/12/06 09:59:25;;;;;;;7.63;4.60;;;4.40;99.90;;;;;;5007960;28;20944;-76
2022/12/06 10:02:26;;;;;;;6.88;4.43;;;4.40;99.90;;;;;;5007637;28;20434;-77
2022/12/06 10:05:01;;;;;;;8.53;5.07;;;4.40;99.90;;;;;;5001614;28;20614;-76
2022/12/06 10:07:43;;;;;;;6.93;4.60;;;4.40;99.90;;;;;;5007459;28;20430;-76
2022/12/06 10:10:57;;;;;;;4.50;3.63;;;4.40;99.90;;;;;;5005782;28;20271;-76
2022/12/06 10:13:55;;;;;;;5.30;4.30;;;4.50;99.90;;;;;;4984653;28;20461;-76
2022/12/06 10:16:32;;;;;;;4.23;3.80;;;4.50;99.90;;;;;;5007681;28;20538;-76
2022/12/06 10:19:26;;;;;;;5.97;5.38;;;4.50;99.90;;;;;;5006099;28;20924;-76
2022/12/06 10:22:17;;;;;;;5.10;4.10;;;4.40;99.90;;;;;;5007610;28;20250;-76
2022/12/06 10:25:16;;;;;;;7.20;4.23;;;4.60;99.90;;;;;;5007565;28;20545;-76
2022/12/06 10:28:25;;;;;;;4.20;3.80;;;4.60;99.90;;;;;;5008099;28;20441;-76
2022/12/06 10:30:55;;;;;;;4.10;3.30;;;4.60;99.90;;;;;;4974086;28;20881;-76
2022/12/06 10:33:45;;;;;;;5.87;3.73;;;4.60;99.90;;;;;;5008545;28;21104;-76
2022/12/06 10:36:15;;;;;;;7.35;4.82;;;4.60;99.90;;;;;;5007999;28;20506;-77
2022/12/06 10:38:51;;;;;;;7.33;4.50;;;4.60;99.90;;;;;;5008336;28;20190;-76
2022/12/06 10:41:32;;;;;;;4.35;3.78;;;4.70;99.90;;;;;;5008034;28;20412;-76
2022/12/06 10:44:26;;;;;;;5.60;3.70;;;4.80;99.90;;;;;;5008114;28;20268;-75
2022/12/06 10:47:13;;;;;;;4.80;3.60;;;4.70;99.90;;;;;;5009712;28;20479;-75
2022/12/06 10:49:40;;;;;;;4.45;3.83;;;4.70;99.90;;;;;;5011672;28;20508;-75
2022/12/06 10:52:26;;;;;;;5.65;4.15;;;4.90;99.90;;;;;;5011584;28;20189;-76
2022/12/06 10:55:01;;;;;;;11.55;4.90;;;4.80;99.90;;;;;;5011472;28;20203;-76
2022/12/06 10:58:00;;;;;;;6.32;4.50;;;4.80;99.90;;;;;;5011954;28;20204;-76
2022/12/06 11:00:29;;;;;;;9.70;5.07;;;4.80;99.90;;;;;;5009877;28;20959;-76
2022/12/06 11:03:11;;;;;;;9.82;5.30;;;4.90;99.90;;;;;;5011570;28;20214;-76
2022/12/06 11:05:53;;;;;;;6.55;5.50;;;5.00;99.90;;;;;;5011600;28;20269;-77
2022/12/06 11:08:30;;;;;;;6.57;4.90;;;5.00;99.90;;;;;;5010232;28;20181;-76
2022/12/06 11:10:58;;;;;;;6.47;5.47;;;5.10;99.90;;;;;;5011678;28;20563;-76
2022/12/06 11:13:36;;;;;;;8.00;5.67;;;5.00;99.90;;;;;;5011310;28;20438;-76
2022/12/06 11:16:30;;;;;;;7.10;5.07;;;5.10;99.90;;;;;;5012065;28;20410;-76
2022/12/06 11:19:06;;;;;;;6.23;5.20;;;5.10;99.90;;;;;;5012252;28;20262;-75
2022/12/06 11:21:52;;;;;;;8.60;5.50;;;5.10;99.90;;;;;;5011081;28;20497;-76
2022/12/06 11:24:29;;;;;;;7.03;5.07;;;5.10;99.90;;;;;;5011214;28;20638;-75
2022/12/06 11:27:20;;;;;;;8.07;5.80;;;5.10;99.90;;;;;;5010163;28;20420;-76
2022/12/06 11:29:48;;;;;;;8.93;5.60;;;5.20;99.90;;;;;;5009729;28;20209;-76
2022/12/06 11:32:15;;;;;;;9.13;7.10;;;5.10;99.90;;;;;;5011111;28;20459;-76
2022/12/06 11:34:48;;;;;;;6.83;5.60;;;5.20;99.90;;;;;;5011031;28;20475;-75
2022/12/06 11:37:23;;;;;;;6.47;5.17;;;5.30;99.90;;;;;;5011002;28;20421;-76
2022/12/06 11:39:57;;;;;;;7.27;5.57;;;5.30;99.90;;;;;;5011239;28;20400;-75
2022/12/06 11:42:26;;;;;;;6.33;5.40;;;5.30;99.90;;;;;;5011388;28;20451;-76
2022/12/06 11:45:09;;;;;;;15.43;7.23;;;5.30;99.90;;;;;;4993648;28;21003;-76
2022/12/06 11:47:34;;;;;;;12.23;8.03;;;5.30;99.90;;;;;;5010379;28;20459;-76
2022/12/06 11:50:01;;;;;;;19.00;8.30;;;5.30;99.90;;;;;;5010018;28;20499;-76
2022/12/06 11:52:37;;;;;;;61.00;22.27;;;5.30;99.90;;;;;;5011754;28;20197;-76
2022/12/06 11:55:17;;;;;;;8.20;5.93;;;5.30;99.90;;;;;;5010182;28;20420;-76
2022/12/06 11:58:02;;;;;;;17.90;15.23;;;5.30;99.90;;;;;;5011761;28;20419;-76
2022/12/06 12:00:28;;;;;;;17.77;14.00;;;5.40;99.90;;;;;;5010895;28;20185;-75
2022/12/06 12:02:55;;;;;;;21.53;10.40;;;5.40;99.90;;;;;;5011973;28;20448;-76
2022/12/06 12:05:37;;;;;;;9.70;6.73;;;5.40;99.90;;;;;;5012135;28;20428;-76
2022/12/06 12:08:17;;;;;;;9.13;6.07;;;5.40;99.90;;;;;;5010759;28;20510;-76
2022/12/06 12:10:45;;;;;;;16.40;10.53;;;5.40;99.90;;;;;;5012944;28;20940;-75
2022/12/06 12:16:27;;;;;;;6.93;5.83;;;5.30;99.90;;;;;;5010765;28;20398;-76
2022/12/06 12:19:05;;;;;;;15.73;9.17;;;5.30;99.90;;;;;;4999410;28;20479;-76
2022/12/06 12:21:33;;;;;;;7.20;5.73;;;5.40;99.90;;;;;;5008891;28;20470;-76
2022/12/06 12:23:59;;;;;;;9.07;6.47;;;5.30;99.90;;;;;;5010234;28;20424;-77
2022/12/06 12:26:35;;;;;;;13.43;7.97;;;5.30;99.90;;;;;;5010220;28;21119;-75
2022/12/06 12:29:02;;;;;;;11.00;7.67;;;5.20;99.90;;;;;;5010288;28;20414;-76
2022/12/06 12:31:28;;;;;;;11.03;6.63;;;5.10;99.90;;;;;;5009860;28;20466;-77
2022/12/06 12:34:16;;;;;;;12.93;7.00;;;5.10;99.90;;;;;;5008604;28;20932;-76
2022/12/06 12:36:48;;;;;;;8.50;5.80;;;5.10;99.90;;;;;;5009722;28;20205;-76
2022/12/06 12:39:24;;;;;;;9.70;6.10;;;5.10;99.90;;;;;;5009642;28;20769;-76
2022/12/06 12:41:49;;;;;;;10.87;6.40;;;5.20;99.90;;;;;;5009848;28;20455;-77
2022/12/06 12:44:22;;;;;;;9.50;5.10;;;5.00;99.90;;;;;;5009847;28;20420;-76
2022/12/06 12:47:21;;;;;;;8.63;6.07;;;5.20;99.90;;;;;;5010002;28;20990;-76
2022/12/06 12:50:24;;;;;;;7.60;5.47;;;5.20;99.90;;;;;;5007767;28;20432;-76
2022/12/06 12:52:50;;;;;;;13.33;7.23;;;5.20;99.90;;;;;;5009461;28;20447;-77
2022/12/06 12:55:18;;;;;;;11.83;7.00;;;5.20;99.90;;;;;;5008392;28;20515;-76
2022/12/06 12:57:46;;;;;;;13.93;8.40;;;5.20;99.90;;;;;;5008401;28;20431;-76
2022/12/06 13:00:17;;;;;;;18.23;8.13;;;5.00;99.90;;;;;;5009939;28;20514;-76
2022/12/06 13:02:46;;;;;;;11.50;7.20;;;5.20;99.90;;;;;;4992352;28;20439;-76
2022/12/06 13:05:25;;;;;;;10.33;6.80;;;5.10;99.90;;;;;;5009959;28;20438;-76
2022/12/06 13:07:54;;;;;;;8.53;6.30;;;5.10;99.90;;;;;;4992463;28;20511;-77
2022/12/06 13:10:30;;;;;;;14.80;9.47;;;5.10;99.90;;;;;;5010206;28;21359;-77
2022/12/06 13:13:18;;;;;;;13.87;8.53;;;5.10;99.90;;;;;;5010485;28;20435;-77
2022/12/06 13:15:48;;;;;;;12.38;7.80;;;5.10;99.90;;;;;;5008968;28;20435;-77
2022/12/06 13:18:27;;;;;;;10.57;6.90;;;5.10;99.90;;;;;;5008943;28;20227;-77
2022/12/06 13:20:56;;;;;;;11.20;6.93;;;5.10;99.90;;;;;;4992404;28;20280;-77
2022/12/06 13:23:26;;;;;;;8.73;6.97;;;5.30;99.90;;;;;;5008304;28;20436;-77
2022/12/06 13:26:03;;;;;;;12.00;6.83;;;5.10;99.90;;;;;;5010490;28;20443;-77
2022/12/06 13:28:34;;;;;;;13.97;7.10;;;5.10;99.90;;;;;;5010037;28;20426;-77
2022/12/06 13:31:13;;;;;;;11.00;7.10;;;5.00;99.90;;;;;;5010119;28;20554;-77
2022/12/06 13:33:51;;;;;;;13.10;7.90;;;5.00;99.90;;;;;;5009844;28;20435;-77
2022/12/06 13:36:19;;;;;;;9.90;7.57;;;5.10;99.90;;;;;;5010043;28;20396;-78
2022/12/06 13:38:45;;;;;;;8.87;6.90;;;5.00;99.90;;;;;;5008712;28;20416;-77
2022/12/06 13:41:13;;;;;;;13.50;8.87;;;5.10;99.90;;;;;;5009909;28;20653;-77
2022/12/06 13:43:38;;;;;;;12.90;8.70;;;5.00;99.90;;;;;;5009588;28;20809;-77
2022/12/06 13:46:12;;;;;;;11.53;7.70;;;5.00;99.90;;;;;;5009611;28;20424;-77